Hawaii Aviation Weather

Weather Information Updated from 1800wxbrief.com

Please note, all weather information provided should be validated for accuracy before flying. Click on each Blue link for more information.

REAL TIME LOCAL RADAR – Base Reflectivity (10min)

General Forecasts (Prog Charts)
Hawaii Lo-Level Sig Progs

Thunderstorm & Severe Weather Forecast
Hawaii Severe Weather Outlook

General Forecasts (Prog Charts)
NE Pacific Surface Analysis

General Forecasts (Prog Charts)
Hawaii Surface Forecast

Aviation Weather from NOAA

PHNL – Honolulu

Available data for PHNL from the past 2 hours
HONOLULU, HI
Metar
PHNL 110953Z 32003KT 10SM FEW024 24/19 A3000 RMK AO2 SLP158 T02440189 403110217 $

09:53 UTC

Wind: 320° 3kt

Visibility: 10 SM

Sky: FEW 2400 ft

Temp: 24 deg C / 75.2 deg F

Dewpoint: 19 deg C / 66.2 deg F

Pressure: 30 inHg

TAF
PHNL 110921Z 1109/1212 34005KT P6SM FEW025 SCT050 FM112000 11009KT P6SM FEW030 SCT050 FM120500 02004KT P6SM FEW025 SCT045

PHJR – Kalealoa (Rogers)

Available data for PHJR from the past 2 hours
KALAELOA, HI
TAF
PHJR 110529Z 1106/1206 VRB03KT P6SM FEW045 FM112000 15008KT P6SM BKN045 FM120500 VRB03KT P6SM FEW045

PHNG – Kaneohe

Available data for PHNG from the past 2 hours
KANEOHE MCAS, HI
Metar
PHNG 110957Z 00000KT 10SM CLR 24/22 A2997 RMK AO2 SLP145 T02390217 402890189 $

09:57 UTC

Wind: 0° 0kt

Visibility: 10 SM

Sky:

Temp: 24 deg C / 75.2 deg F

Dewpoint: 22 deg C / 71.6 deg F

Pressure: 29.97 inHg

TAF
TAF PHNG 1109/1209 VRB05KT 9999 SCT025 SCT045 QNH2990INS TEMPO 1109/1115 8000 -SHRA BKN020 OVC040 TEMPO 1121/1203 07010G16KT T29/1123Z T23/1213Z

PHHI – Wheeler

Available data for PHHI from the past 2 hours
WHEELER AFB/OAHU, HI
Metar
PHHI 110956Z AUTO 00000KT 10SM CLR 20/18 A3001 RMK AO2 SLP152 T01990182 402950171 $

09:56 UTC

Wind: 0° 0kt

Visibility: 10 SM

Sky:

Temp: 20 deg C / 68 deg F

Dewpoint: 18 deg C / 64.4 deg F

Pressure: 30.01 inHg

Honolulu 3 Day Forecast (Wind, Temp, etc)
HAWAII INFRARED Satellite
HAWAII Visible Satellite
HAWAII National Weather Service Forecast